Map

Track Data

SID SEASON NUMBER BASIN SUBBASIN NAME ISO_TIME NATURE LAT LON WMO_WIND WMO_PRES WMO_AGENCY TRACK_TYPE DIST2LAND LANDFALL IFLAG USA_AGENCY USA_ATCF_ID USA_LAT USA_LON USA_RECORD USA_STATUS USA_WIND USA_PRES USA_SSHS USA_R34_NE USA_R34_SE USA_R34_SW USA_R34_NW USA_R50_NE USA_R50_SE USA_R50_SW USA_R50_NW USA_R64_NE USA_R64_SE USA_R64_SW USA_R64_NW USA_POCI USA_ROCI USA_RMW USA_EYE TOKYO_LAT TOKYO_LON TOKYO_GRADE TOKYO_WIND TOKYO_PRES TOKYO_R50_DIR TOKYO_R50_LONG TOKYO_R50_SHORT TOKYO_R30_DIR TOKYO_R30_LONG TOKYO_R30_SHORT TOKYO_LAND CMA_LAT CMA_LON CMA_CAT CMA_WIND CMA_PRES HKO_LAT HKO_LON HKO_CAT HKO_WIND HKO_PRES NEWDELHI_LAT NEWDELHI_LON NEWDELHI_GRADE NEWDELHI_WIND NEWDELHI_PRES NEWDELHI_CI NEWDELHI_DP NEWDELHI_POCI REUNION_LAT REUNION_LON REUNION_TYPE REUNION_WIND REUNION_PRES REUNION_TNUM REUNION_CI REUNION_RMW REUNION_R34_NE REUNION_R34_SE REUNION_R34_SW REUNION_R34_NW REUNION_R50_NE REUNION_R50_SE REUNION_R50_SW REUNION_R50_NW REUNION_R64_NE REUNION_R64_SE REUNION_R64_SW REUNION_R64_NW BOM_LAT BOM_LON BOM_TYPE BOM_WIND BOM_PRES BOM_TNUM BOM_CI BOM_RMW BOM_R34_NE BOM_R34_SE BOM_R34_SW BOM_R34_NW BOM_R50_NE BOM_R50_SE BOM_R50_SW BOM_R50_NW BOM_R64_NE BOM_R64_SE BOM_R64_SW BOM_R64_NW BOM_ROCI BOM_POCI BOM_EYE BOM_POS_METHOD BOM_PRES_METHOD NADI_LAT NADI_LON NADI_CAT NADI_WIND NADI_PRES WELLINGTON_LAT WELLINGTON_LON WELLINGTON_WIND WELLINGTON_PRES DS824_LAT DS824_LON DS824_STAGE DS824_WIND DS824_PRES TD9636_LAT TD9636_LON TD9636_STAGE TD9636_WIND TD9636_PRES TD9635_LAT TD9635_LON TD9635_WIND TD9635_PRES TD9635_ROCI NEUMANN_LAT NEUMANN_LON NEUMANN_CLASS NEUMANN_WIND NEUMANN_PRES MLC_LAT MLC_LON MLC_CLASS MLC_WIND MLC_PRES USA_GUST BOM_GUST BOM_GUST_PER REUNION_GUST REUNION_GUST_PER USA_SEAHGT USA_SEARAD_NE USA_SEARAD_SE USA_SEARAD_SW USA_SEARAD_NW STORM_SPEED STORM_DIR
1959360S13072 1960 112 SI MM NOT_NAMED 1959-12-26 06:00:00 TS -13.0000 71.9000 main 1708 1699 O________OO___ jtwc_sh SH071960 -13.0000 71.9000 -1 -13.0000 71.9000 TC 25 -13.0000 71.9000 7 3 270
1959360S13072 1960 112 SI MM NOT_NAMED 1959-12-26 09:00:00 TS -13.0000 71.7495 main 1689 1680 P________PP___ SH071960 -12.9875 71.7625 -1 -12.9875 71.7625 TC 25 -13.0251 71.7235 7 3 267
1959360S13072 1960 112 SI MM NOT_NAMED 1959-12-26 12:00:00 TS -13.0167 71.5825 main 1680 1655 O________OP___ jtwc_sh SH071960 -13.0000 71.6000 -1 -13.0000 71.6000 TC 25 -13.0501 71.5475 7 4 261
1959360S13072 1960 112 SI MM NOT_NAMED 1959-12-26 15:00:00 TS -13.0584 71.3910 main 1655 1637 P________PP___ SH071960 -13.0500 71.4000 -1 -13.0500 71.4000 TC 30 -13.0751 71.3728 7 4 257
1959360S13072 1960 112 SI MM NOT_NAMED 1959-12-26 18:00:00 TS -13.1000 71.2000 main 1637 1627 O________OO___ jtwc_sh SH071960 -13.1000 71.2000 -1 -13.1000 71.2000 TC 35 -13.1000 71.2000 2 3 262
1959360S13072 1960 112 SI MM NOT_NAMED 1959-12-26 21:00:00 TS -13.1083 71.0430 main 1618 1609 P________PP___ SH071960 -13.1000 71.0500 -1 -13.1000 71.0500 TC 35 -13.1249 71.0290 2 3 267
1959360S13072 1960 112 SI MM NOT_NAMED 1959-12-27 00:00:00 TS -13.1166 70.8858 main 1609 1584 O________OP___ jtwc_sh SH071960 -13.1000 70.9000 -1 -13.1000 70.9000 TC 35 -13.1499 70.8575 2 3 262
1959360S13072 1960 112 SI MM NOT_NAMED 1959-12-27 03:00:00 TS -13.1583 70.6991 main 1584 1566 P________PP___ SH071960 -13.1500 70.7075 -1 -13.1500 70.7075 TC 35 -13.1749 70.6822 2 4 257
1959360S13072 1960 112 SI MM NOT_NAMED 1959-12-27 06:00:00 TS -13.2000 70.5000 main 1566 1547 O________OO___ jtwc_sh SH071960 -13.2000 70.5000 -1 -13.2000 70.5000 TC 35 -13.2000 70.5000 2 4 263
1959360S13072 1960 112 SI MM NOT_NAMED 1959-12-27 09:00:00 TS -13.2070 70.3024 main 1547 1529 P________PP___ SH071960 -13.2000 70.3000 -1 -13.2000 70.3000 TC 35 -13.2209 70.3072 2 4 268
1959360S13072 1960 112 SI MM NOT_NAMED 1959-12-27 12:00:00 TS -13.2142 70.1025 main 1529 1511 O________OP___ jtwc_sh SH071960 -13.2000 70.1000 -1 -13.2000 70.1000 TC 35 -13.2425 70.1074 2 4 264
1959360S13072 1960 112 SI MM NOT_NAMED 1959-12-27 15:00:00 TS -13.2509 69.9013 main 1505 1486 P________PP___ SH071960 -13.2425 69.9000 -1 -13.2425 69.9000 TC 35 -13.2678 69.9040 2 4 258
1959360S13072 1960 112 SI MM NOT_NAMED 1959-12-27 18:00:00 TS -13.3000 69.7000 main 1486 1468 O________OO___ jtwc_sh SH071960 -13.3000 69.7000 -1 -13.3000 69.7000 TC 35 -13.3000 69.7000 2 4 256
1959360S13072 1960 112 SI MM NOT_NAMED 1959-12-27 21:00:00 TS -13.3489 69.5108 main 1468 1444 P________PP___ SH071960 -13.3500 69.5000 -1 -13.3500 69.5000 TC 35 -13.3466 69.5325 2 4 255
1959360S13072 1960 112 SI MM NOT_NAMED 1959-12-28 00:00:00 TS -13.3999 69.3200 main 1444 1429 O________OP___ jtwc_sh SH071960 -13.4000 69.3000 -1 -13.4000 69.3000 TC 35 -13.3996 69.3600 2 4 254
1959360S13072 1960 112 SI MM NOT_NAMED 1959-12-28 03:00:00 TS -13.4559 69.1342 main 1420 1377 P________PP___ SH071960 -13.4574 69.1225 -1 -13.4574 69.1225 TC 35 -13.4528 69.1575 2 6 255
1959360S13072 1960 112 SI MM NOT_NAMED 1959-12-28 06:00:00 TS -13.5615 68.7077 reunion main 1377 1341 O____O___OO___ jtwc_sh SH071960 -13.5000 68.9000 -1 -14.3000 66.4000 99 9.90000 -13.5000 68.9000 TC 35 -13.5000 68.9000 2 9 259
1959360S13072 1960 112 SI MM NOT_NAMED 1959-12-28 09:00:00 TS -13.6201 68.2739 main 1341 1299 P____P___PP___ SH071960 -13.5000 68.5874 -1 -14.2761 66.4445 99 -13.5000 68.5874 TC 35 -13.5323 68.5615 2 8 263
1959360S13072 1960 112 SI MM NOT_NAMED 1959-12-28 12:00:00 TS -13.6663 67.8461 main 1290 1264 O____P___OP___ jtwc_sh SH071960 -13.5000 68.2000 -1 -14.2545 66.4741 99 -13.5000 68.2000 TC 35 -13.5576 68.1674 2 8 262
1959360S13072 1960 112 SI MM NOT_NAMED 1959-12-28 15:00:00 TS -13.7292 67.4321 main 1255 1222 P____P___PP___ SH071960 -13.5500 67.7576 -1 -14.2375 66.4738 99 -13.5500 67.7576 TC 35 -13.5791 67.7396 2 7 263
1959360S13072 1960 112 SI MM NOT_NAMED 1959-12-28 18:00:00 TS -13.7568 67.0822 main 1222 1197 O____P___OO___ jtwc_sh SH071960 -13.6000 67.3000 -1 -14.2273 66.4286 99 -13.6000 67.3000 TC 35 -13.6000 67.3000 2 7 268
1959360S13072 1960 112 SI MM NOT_NAMED 1959-12-28 21:00:00 TS -13.7565 66.7604 main 1197 1162 P____P___PP___ SH071960 -13.5999 66.8999 -1 -14.2264 66.3237 99 -13.5999 66.8999 TC 35 -13.6000 66.9182 2 6 270
1959360S13072 1960 112 SI MM NOT_NAMED 1959-12-29 00:00:00 TS -13.7602 66.4170 main 1162 1137 O____P___OP___ jtwc_sh SH071960 -13.6000 66.5000 -1 -14.2368 66.1440 99 -13.6000 66.5000 TC 35 -13.6040 66.5241 2 7 268
1959360S13072 1960 112 SI MM NOT_NAMED 1959-12-29 03:00:00 TS -13.7866 66.0356 main 1129 1096 P____P___PP___ SH071960 -13.6273 66.0874 -1 -14.2607 65.8745 99 -13.6273 66.0874 TC 35 -13.6310 66.0930 2 8 264
1959360S13072 1960 112 SI MM NOT_NAMED 1959-12-29 06:00:00 TS -13.8500 65.5750 reunion main 1096 1033 O____O___OO___ jtwc_sh SH071960 -13.7000 65.6000 -1 -14.3000 65.5000 99 9.90000 -13.7000 65.6000 TC 35 -13.7000 65.6000 2 10 260
1959360S13072 1960 112 SI MM NOT_NAMED 1959-12-29 09:00:00 TS -13.9628 64.9956 main 1033 978 P____P___PP___ SH071960 -13.8275 64.9800 -1 -14.3557 65.0114 99 -13.8275 64.9800 TC 35 -13.8403 65.0111 2 12 258
1959360S13072 1960 112 SI MM NOT_NAMED 1959-12-29 12:00:00 TS -14.1115 64.3461 main 970 909 O____P___OP___ jtwc_sh SH071960 -14.0000 64.3000 -1 -14.4257 64.4237 99 -14.0000 64.3000 TC 35 -14.0204 64.3606 2 13 256
1959360S13072 1960 112 SI MM NOT_NAMED 1959-12-29 15:00:00 TS -14.2805 63.6807 main 909 850 P____P___PP___ SH071960 -14.1999 63.6425 -1 -14.5072 63.7580 99 -14.1999 63.6425 TC 35 -14.2152 63.6798 2 13 255
1959360S13072 1960 112 SI MM NOT_NAMED 1959-12-29 18:00:00 TS -14.4494 63.0088 main 850 792 O____P___OO___ jtwc_sh SH071960 -14.4000 63.0000 -1 -14.5974 63.0353 99 -14.4000 63.0000 TC 35 -14.4000 63.0000 2 13 256
1959360S13072 1960 112 SI MM NOT_NAMED 1959-12-29 21:00:00 TS -14.5956 62.3611 main 792 738 P____P___PP___ SH071960 -14.5647 62.3999 -1 -14.6939 62.2769 99 -14.5647 62.3999 TC 35 -14.5591 62.3678 2 13 258
1959360S13072 1960 112 SI MM NOT_NAMED 1959-12-30 00:00:00 TS -14.7240 61.7117 main 738 694 O____P___OP___ jtwc_sh SH071960 -14.7000 61.8000 -1 -14.7944 61.5040 99 -14.7000 61.8000 TC 35 -14.7017 61.7426 2 13 259
1959360S13072 1960 112 SI MM NOT_NAMED 1959-12-30 03:00:00 TS -14.8401 61.0398 main 688 648 P____P___PP___ SH071960 -14.8224 61.1500 -1 -14.8970 60.7380 99 -14.8224 61.1500 TC 50 -14.8185 61.1211 2 13 261
1959360S13072 1960 112 SI MM NOT_NAMED 1959-12-30 06:00:00 TS -14.9250 60.3750 reunion main 648 612 O____O___OO___ jtwc_sh SH071960 -14.9000 60.5000 -1 -15.0000 60.0000 99 9.90000 -14.9000 60.5000 TC 65 -14.9000 60.5000 4 13 265
1959360S13072 1960 112 SI MM NOT_NAMED 1959-12-30 09:00:00 TS -14.9578 59.7462 main 608 592 P____P___PP___ SH071960 -14.9147 59.8999 -1 -15.0700 59.3310 99 -14.9147 59.8999 TC 65 -14.9317 59.8542 4 12 268
1959360S13072 1960 112 SI MM NOT_NAMED 1959-12-30 12:00:00 TS -14.9673 59.1213 main 589 576 O____P___OP___ jtwc_sh SH071960 -14.9000 59.3000 -1 -15.1395 58.6736 99 -14.9000 59.3000 TC 65 -14.9299 59.2118 4 12 269
1959360S13072 1960 112 SI MM NOT_NAMED 1959-12-30 15:00:00 TS -14.9815 58.4768 main 576 571 P____P___PP___ SH071960 -14.9000 58.6425 -1 -15.2130 58.0335 99 -14.9000 58.6425 TC 65 -14.9131 58.5886 4 12 269
1959360S13072 1960 112 SI MM NOT_NAMED 1959-12-30 18:00:00 TS -14.9988 57.8542 main 571 570 O____P___OO___ jtwc_sh SH071960 -14.9000 58.0000 -1 -15.2950 57.4167 99 -14.9000 58.0000 TC 65 -14.9000 58.0000 4 12 268
1959360S13072 1960 112 SI MM NOT_NAMED 1959-12-30 21:00:00 TS -15.0149 57.2811 main 571 571 P____P___PP___ SH071960 -14.8924 57.4200 -1 -15.3901 56.8290 99 -14.8924 57.4200 TC 65 -14.8847 57.4555 4 11 267
1959360S13072 1960 112 SI MM NOT_NAMED 1959-12-31 00:00:00 TS -15.0461 56.7558 main 575 565 O____P___OP___ jtwc_sh SH071960 -14.9000 56.9000 -1 -15.5028 56.2764 99 -14.9000 56.9000 TC 65 -14.8817 56.9469 4 10 265
1959360S13072 1960 112 SI MM NOT_NAMED 1959-12-31 03:00:00 TS -15.1014 56.2749 main 573 568 P____P___PP___ SH071960 -14.9273 56.4349 -1 -15.6379 55.7648 99 -14.9273 56.4349 TC 65 -14.9129 56.4648 4 9 260
1959360S13072 1960 112 SI MM NOT_NAMED 1959-12-31 06:00:00 TS -15.2000 55.8250 reunion main 568 525 O____O___OO___ jtwc_sh SH071960 -15.0000 56.0000 -1 -15.8000 55.3000 99 9.90000 -15.0000 56.0000 TC 65 -15.0000 56.0000 4 9 255
1959360S13072 1960 112 SI MM NOT_NAMED 1959-12-31 09:00:00 TS -15.3388 55.3675 main 525 482 P____P___PP___ SH071960 -15.1124 55.5499 -1 -15.9832 54.8629 99 -15.1124 55.5499 TC 65 -15.1471 55.5075 4 9 249
1959360S13072 1960 112 SI MM NOT_NAMED 1959-12-31 12:00:00 TS -15.5362 54.9258 main 471 430 O____P___OP___ jtwc_sh SH071960 -15.3000 55.1000 -1 -16.1923 54.4705 99 -15.3000 55.1000 TC 65 -15.3525 55.0329 4 10 242
1959360S13072 1960 112 SI MM NOT_NAMED 1959-12-31 15:00:00 TS -15.7931 54.4917 main 430 393 P____P___PP___ SH071960 -15.5700 54.6276 -1 -16.4258 54.1200 99 -15.5700 54.6276 TC 65 -15.6066 54.5917 4 10 235
1959360S13072 1960 112 SI MM NOT_NAMED 1959-12-31 18:00:00 TS -16.0955 54.1021 main 393 367 O____P___OO___ jtwc_sh SH071960 -15.9000 54.2000 -1 -16.6820 53.8086 99 -15.9000 54.2000 TC 65 -15.9000 54.2000 4 9 228
1959360S13072 1960 112 SI MM NOT_NAMED 1959-12-31 21:00:00 TS -16.4114 53.7829 main 370 352 P____P___PP___ SH071960 -16.2424 53.8699 -1 -16.9592 53.5336 99 -16.2424 53.8699 TC 65 -16.2015 53.8582 4 9 221
1959360S13072 1960 112 SI MM NOT_NAMED 1960-01-01 00:00:00 TS -16.7488 53.5149 main 352 346 O____P___OP___ jtwc_sh SH071960 -16.6000 53.6000 -1 -17.2558 53.2922 99 -16.6000 53.6000 TC 65 -16.5396 53.5672 4 8 216
1959360S13072 1960 112 SI MM NOT_NAMED 1960-01-01 03:00:00 TS -17.0907 53.2673 main 351 341 P____P___PP___ SH071960 -16.9425 53.3349 -1 -17.5700 53.0819 99 -16.9425 53.3349 TC 65 -16.9079 53.3176 4 8 212
1959360S13072 1960 112 SI MM NOT_NAMED 1960-01-01 06:00:00 TS -17.4500 53.0500 reunion main 346 338 O____O___OO___ jtwc_sh SH071960 -17.3000 53.1000 -1 -17.9000 52.9000 99 9.90000 -17.3000 53.1000 TC 65 -17.3000 53.1000 4 8 209
1959360S13072 1960 112 SI MM NOT_NAMED 1960-01-01 09:00:00 TS -17.8178 52.8404 main 337 335 P____P___PP___ SH071960 -17.6850 52.8849 -1 -18.2059 52.7079 99 -17.6850 52.8849 TC 65 -17.6952 52.8838 4 9 206
1959360S13072 1960 112 SI MM NOT_NAMED 1960-01-01 12:00:00 TS -18.2100 52.6612 main 343 328 O____P___OP___ jtwc_sh SH071960 -18.1000 52.7000 -1 -18.5278 52.5477 99 -18.1000 52.7000 TC 65 -18.1124 52.6972 4 9 201
1959360S13072 1960 112 SI MM NOT_NAMED 1960-01-01 15:00:00 TS -18.6252 52.5059 main 330 323 P____P___PP___ SH071960 -18.5425 52.5350 -1 -18.8674 52.4167 99 -18.5425 52.5350 TC 65 -18.5484 52.5370 4 9 198
1959360S13072 1960 112 SI MM NOT_NAMED 1960-01-01 18:00:00 TS -19.0567 52.3780 main 331 325 O____P___OO___ jtwc_sh SH071960 -19.0000 52.4000 -1 -19.2268 52.3119 99 -19.0000 52.4000 TC 65 -19.0000 52.4000 4 9 195
1959360S13072 1960 112 SI MM NOT_NAMED 1960-01-01 21:00:00 TS -19.4782 52.2733 main 337 330 P____P___PP___ SH071960 -19.4425 52.2924 -1 -19.6079 52.2307 99 -19.4425 52.2924 TC 65 -19.4200 52.2778 4 9 192
1959360S13072 1960 112 SI MM NOT_NAMED 1960-01-02 00:00:00 TS -19.9181 52.1867 main 340 331 O____P___OP___ jtwc_sh SH071960 -19.9000 52.2000 -1 -20.0125 52.1702 99 -19.9000 52.2000 TC 65 -19.8600 52.1766 4 9 190
1959360S13072 1960 112 SI MM NOT_NAMED 1960-01-02 03:00:00 TS -20.3819 52.1036 main 331 325 P____P___PP___ SH071960 -20.3700 52.0999 -1 -20.4426 52.1275 99 -20.3700 52.0999 TC 65 -20.3450 52.0872 4 10 189
1959360S13072 1960 112 SI MM NOT_NAMED 1960-01-02 06:00:00 TS -20.9000 52.0250 reunion main 332 331 O____O___OO___ jtwc_sh SH071960 -20.9000 52.0000 -1 -20.9000 52.1000 99 9.90000 -20.9000 52.0000 TC 65 -20.9000 52.0000 4 11 188
1959360S13072 1960 112 SI MM NOT_NAMED 1960-01-02 09:00:00 TS -21.4915 51.9318 main 344 344 P____P___PP___ SH071960 -21.5050 51.8999 -1 -21.4229 52.0588 99 -21.5050 51.8999 TC 65 -21.5330 51.8687 4 13 188
1959360S13072 1960 112 SI MM NOT_NAMED 1960-01-02 12:00:00 TS -22.1545 51.8443 main 372 372 O____P___OP___ jtwc_sh SH071960 -22.2000 51.8000 -1 -21.9802 52.0352 99 -22.2000 51.8000 TC 65 -22.2378 51.7420 4 14 186
1959360S13072 1960 112 SI MM NOT_NAMED 1960-01-02 15:00:00 TS -22.8781 51.7607 main 389 383 P____P___PP___ SH071960 -22.9775 51.6852 -1 -22.5585 52.0283 99 -22.9775 51.6852 TC 65 -22.9987 51.6441 4 15 185
1959360S13072 1960 112 SI MM NOT_NAMED 1960-01-02 18:00:00 TS -23.6362 51.7092 main 405 405 O____P___OO___ jtwc_sh SH071960 -23.8000 51.6000 -1 -23.1446 52.0367 99 -23.8000 51.6000 TC 65 -23.8000 51.6000 4 15 182
1959360S13072 1960 112 SI MM NOT_NAMED 1960-01-02 21:00:00 TS -24.3808 51.6995 main 421 421 P____P___PP___ SH071960 -24.5849 51.5554 -1 -23.7252 52.0593 99 -24.5849 51.5554 TC 65 -24.6280 51.6279 4 14 177
1959360S13072 1960 112 SI MM NOT_NAMED 1960-01-03 00:00:00 TS -25.0748 51.7792 main 451 451 O____P___OP___ jtwc_sh SH071960 -25.4000 51.6000 -1 -24.2868 52.0948 99 -25.4000 51.6000 TC 65 -25.4749 51.7165 4 13 171
1959360S13072 1960 112 SI MM NOT_NAMED 1960-01-03 03:00:00 TS -25.7054 51.9318 main 481 481 P____P___PP___ SH071960 -26.2801 51.7639 -1 -24.8162 52.1422 99 -26.2801 51.7639 TC 65 -26.3344 51.8471 4 11 164
1959360S13072 1960 112 SI MM NOT_NAMED 1960-01-03 06:00:00 TS -26.1143 52.1143 reunion main 514 513 O____O___OO___ jtwc_sh SH071960 -27.2000 52.0000 -1 -25.3000 52.2000 99 9.90000 -27.2000 52.0000 TC 65 -27.2000 52.0000 4 3 94
1959360S13072 1960 112 SI MM NOT_NAMED 1960-01-03 09:00:00 NR -25.7285 52.2670 main 519 519 _____P________ SH071960 -1 -25.7285 52.2670 99 TC 4 2 88
1959360S13072 1960 112 SI MM NOT_NAMED 1960-01-03 12:00:00 NR -26.1055 52.3420 main 533 533 _____P________ -1 -26.1055 52.3420 99 4 7 169
1959360S13072 1960 112 SI MM NOT_NAMED 1960-01-03 15:00:00 NR -26.4385 52.4240 main 553 553 _____P________ -1 -26.4385 52.4240 99 4 7 166
1959360S13072 1960 112 SI MM NOT_NAMED 1960-01-03 18:00:00 NR -26.7348 52.5119 main 572 572 _____P________ -1 -26.7348 52.5119 99 6 164
1959360S13072 1960 112 SI MM NOT_NAMED 1960-01-03 21:00:00 NR -27.0018 52.6045 main 592 592 _____P________ -1 -27.0018 52.6045 99 5 162
1959360S13072 1960 112 SI MM NOT_NAMED 1960-01-04 00:00:00 NR -27.2467 52.7008 main 610 610 _____P________ -1 -27.2467 52.7008 99 5 160
1959360S13072 1960 112 SI MM NOT_NAMED 1960-01-04 03:00:00 NR -27.4771 52.7996 main 632 632 _____P________ -1 -27.4771 52.7996 99 5 159
1959360S13072 1960 112 SI MM NOT_NAMED 1960-01-04 06:00:00 NR -27.7000 52.9000 reunion main 651 _____O________ -1 -27.7000 52.9000 99 9.90000 5 158

About IBTrACS Database

This database is a web-friendly format of International Best Track Archive for Climate Stewardship (IBTrACS), a global best track data archive curated by NOAA dating back to 1842.

Updated: 2021-12-01